Latest Weather Observations for St George

IDQ60801

Issued at 10:32 pm EST Thursday 26 May 2016 (issued every 30 minutes, with the page automatically refreshed every 10 minutes)

About weather observations | Map of weather stations | Latest weather observations for QLD | Other Formats
Station Details ID: 043109 Name: ST GEORGE AIRPORT Lat: -28.05 Lon: 148.59 Height: 198.5 m
Data from the previous 72 hours. | See also: Recent months at St George
Date/Time
EST
Temp
°C
App
Temp
°C
Dew
Point
Rel
Hum
%
Delta-T
°C
Wind Press
QNH
hPa
Press
MSL
hPa
Rain
since 9 am
mm
Dir
 
Spd
km/h
Gust
km/h
Spd
kts
Gust
kts
26/10:30pm 15.6 16.6 13.3 86 1.3 CALM 0 0 0 0 1010.3 - 4.0
26/10:00pm 15.5 15.7 13.0 85 1.4 NE 4 9 2 5 1010.3 - 3.8
26/09:30pm 16.3 14.9 12.3 77 2.2 NNW 11 15 6 8 1011.2 - 0.8
26/09:00pm 16.6 16.0 11.7 73 2.7 ESE 6 9 3 5 1010.4 1010.1 0.0
26/08:30pm 16.1 14.9 12.7 80 1.9 SE 11 15 6 8 1009.6 - 0.0
26/08:00pm 16.5 16.6 12.7 78 2.1 NE 4 11 2 6 1009.6 - 0.0
26/07:30pm 16.5 15.8 12.1 75 2.4 ESE 7 11 4 6 1008.9 - 0.0
26/07:00pm 17.0 15.8 11.5 70 3.0 E 9 11 5 6 1008.7 - 0.0
26/06:30pm 16.7 16.0 12.0 74 2.6 SE 7 13 4 7 1009.0 - 0.0
26/06:00pm 17.7 15.4 10.6 63 3.8 S 13 19 7 10 1009.4 1009.1 0.0
26/05:30pm 18.2 14.5 10.1 59 4.4 SSE 20 24 11 13 1009.0 - 0.0
26/05:00pm 19.7 14.2 9.3 51 5.6 S 28 41 15 22 1008.1 - 0.0
26/04:30pm 21.6 14.1 9.5 46 6.6 S 39 52 21 28 1007.7 - 0.0
26/04:18pm 23.6 14.8 7.3 35 8.6 SSW 43 69 23 37 1007.3 - 0.0
26/04:12pm 24.9 15.4 6.6 31 9.6 SSW 46 80 25 43 1007.0 - 0.0
26/04:09pm 26.0 14.5 6.1 28 10.4 SW 56 80 30 43 1006.8 - 0.0
26/04:07pm 28.5 19.9 6.6 25 11.7 W 41 80 22 43 1006.5 - 0.0
26/04:00pm 30.1 22.2 7.9 25 12.2 WNW 39 59 21 32 1006.3 - 0.0
26/03:51pm 30.5 22.9 7.7 24 12.6 WNW 37 59 20 32 1006.2 - 0.0
26/03:30pm 31.0 24.3 8.1 24 12.7 W 33 48 18 26 1006.1 - 0.0
26/03:21pm 30.1 23.3 7.9 25 12.2 W 33 52 18 28 1006.2 - 0.0
26/03:00pm 30.9 24.2 8.0 24 12.7 WNW 33 50 18 27 1006.2 1005.8 0.0
26/02:30pm 31.0 23.2 8.1 24 12.7 WNW 39 54 21 29 1006.6 - 0.0
26/02:09pm 30.8 22.9 7.9 24 12.7 W 39 63 21 34 1006.6 - 0.0
26/02:00pm 31.0 23.5 8.1 24 12.7 WNW 37 50 20 27 1006.8 - 0.0
26/01:30pm 31.1 22.9 8.2 24 12.7 WNW 41 59 22 32 1007.0 - 0.0
26/01:00pm 29.8 22.7 8.2 26 11.9 WNW 35 56 19 30 1008.0 - 0.0
26/12:54pm 30.2 22.0 8.0 25 12.3 WNW 41 59 22 32 1008.2 - 0.0
26/12:30pm 30.2 23.1 8.0 25 12.3 WNW 35 46 19 25 1008.3 - 0.0
26/12:05pm 30.0 23.4 8.4 26 12.0 WNW 33 54 18 29 1008.3 - 0.0
26/12:00pm 29.9 23.4 8.3 26 12.0 NW 32 46 17 25 1008.3 1007.9 0.0
26/11:30am 28.8 22.1 7.4 26 11.6 NW 32 50 17 27 1009.5 - 0.0
26/11:29am 28.7 22.0 7.3 26 11.6 NW 32 50 17 27 1009.6 - 0.0
26/11:00am 28.3 22.0 7.5 27 11.3 NW 30 43 16 23 1010.4 - 0.0
26/10:30am 26.7 20.6 6.7 28 10.6 NW 28 43 15 23 1011.3 - 0.0
26/10:00am 24.5 19.0 5.8 30 9.6 NNW 24 37 13 20 1011.8 - 0.0
26/09:30am 22.7 18.0 5.2 32 8.8 NNW 19 28 10 15 1012.3 - 0.0
26/09:00am 20.1 15.7 2.9 32 8.1 N 15 20 8 11 1012.4 1012.0 0.0
26/08:30am 18.0 13.0 1.1 32 7.6 N 17 22 9 12 1012.6 - 0.0
26/08:00am 16.8 11.2 0.0 32 7.3 N 19 26 10 14 1012.6 - 0.0
26/07:30am 15.2 9.4 -1.4 32 6.9 N 19 30 10 16 1012.4 - 0.0
26/07:00am 14.2 8.7 -2.2 32 6.6 N 17 24 9 13 1012.6 - 0.0
26/06:30am 14.3 8.4 -2.6 31 6.8 N 19 26 10 14 1012.6 - 0.0
26/06:00am 14.0 8.8 -2.8 31 6.7 N 15 19 8 10 1012.7 1012.3 0.0
26/05:30am 13.3 8.1 -3.0 32 6.4 N 15 19 8 10 1012.6 - 0.0
26/05:00am 12.9 8.0 -3.0 33 6.2 N 13 15 7 8 1012.9 - 0.0
26/04:30am 12.3 7.8 -3.1 34 6.0 N 11 15 6 8 1013.0 - 0.0
26/04:00am 11.3 6.9 -2.8 37 5.4 N 11 13 6 7 1013.0 - 0.0
26/03:30am 11.2 6.5 -1.9 40 5.2 NNE 13 15 7 8 1013.4 - 0.0
26/03:00am 10.8 6.9 -1.6 42 4.9 N 9 13 5 7 1013.8 1013.5 0.0
26/02:30am 8.9 5.1 -0.7 51 3.8 NNE 9 11 5 6 1014.1 - 0.0
26/02:00am 8.4 4.9 -1.7 49 3.9 NNE 7 9 4 5 1014.4 - 0.0
26/01:30am 8.7 5.3 -2.0 47 4.1 N 6 7 3 4 1014.6 - 0.0
26/01:00am 9.4 6.8 -1.9 45 4.4 NNE 2 7 1 4 1014.8 - 0.0
26/12:30am 10.6 7.0 -1.8 42 4.9 NNE 7 9 4 5 1015.1 - 0.0
26/12:00am 11.1 7.2 -1.3 42 4.9 NNE 9 13 5 7 1015.4 1015.1 0.0
 
Date/Time
EST
Temp
°C
App
Temp
°C
Dew
Point
Rel
Hum
%
Delta-T
°C
Wind Press
QNH
hPa
Press
MSL
hPa
Rain
since 9 am
mm
Dir
 
Spd
km/h
Gust
km/h
Spd
kts
Gust
kts
25/11:30pm 11.1 7.2 -1.3 42 4.9 NE 9 9 5 5 1015.7 - 0.0
25/11:00pm 9.3 5.4 -1.4 47 4.2 NE 9 11 5 6 1015.9 - 0.0
25/10:30pm 8.7 5.2 -2.6 45 4.3 N 6 7 3 4 1016.3 - 0.0
25/10:00pm 9.3 7.1 -1.7 46 4.3 CALM 0 0 0 0 1016.3 - 0.0
25/09:30pm 9.6 7.5 -1.1 47 4.2 CALM 0 0 0 0 1016.5 - 0.0
25/09:00pm 9.9 7.2 -2.1 43 4.6 SE 2 7 1 4 1016.6 1016.2 0.0
25/08:30pm 10.6 8.5 -0.5 46 4.5 CALM 0 0 0 0 1016.6 - 0.0
25/08:00pm 11.9 9.7 -1.6 39 5.4 CALM 0 0 0 0 1016.2 - 0.0
25/07:30pm 11.4 9.2 -1.7 40 5.2 CALM 0 0 0 0 1016.3 - 0.0
25/07:00pm 12.4 10.4 0.2 43 5.1 CALM 0 0 0 0 1016.6 - 0.0
25/06:30pm 14.2 12.1 -1.0 35 6.3 CALM 0 0 0 0 1016.3 - 0.0
25/06:00pm 15.6 13.3 -2.3 29 7.3 CALM 0 0 0 0 1015.8 1015.5 0.0
25/05:30pm 18.1 15.7 -2.8 24 8.7 CALM 0 0 0 0 1015.5 - 0.0
25/05:00pm 21.3 18.1 -3.2 19 10.4 NE 4 6 2 3 1015.0 - 0.0
25/04:30pm 21.8 18.6 -3.5 18 10.7 WSW 4 7 2 4 1015.4 - 0.0
25/04:00pm 22.5 18.3 -3.7 17 11.1 W 9 13 5 7 1015.6 - 0.0
25/03:30pm 22.4 18.2 -3.8 17 11.1 NNW 9 15 5 8 1015.8 - 0.0
25/03:00pm 22.1 17.9 -4.1 17 11.0 NW 9 15 5 8 1015.8 1015.5 0.0
25/02:30pm 22.2 17.9 -1.8 20 10.5 NNW 11 17 6 9 1016.0 - 0.0
25/02:00pm 21.5 17.9 -2.4 20 10.3 NNW 7 13 4 7 1016.5 - 0.0
25/01:30pm 21.2 17.9 0.4 25 9.4 NW 7 15 4 8 1017.1 - 0.0
25/01:00pm 20.0 16.4 0.5 27 8.8 NW 9 15 5 8 1017.5 - 0.0
25/12:30pm 20.1 16.9 1.0 28 8.7 NNE 7 13 4 7 1018.0 - 0.0
25/12:00pm 19.1 15.9 0.7 29 8.2 NNW 7 13 4 7 1018.6 1018.3 0.0
25/11:30am 17.9 14.9 1.8 34 7.3 S 7 11 4 6 1019.3 - 0.0
25/11:00am 17.0 14.0 1.8 36 6.9 SSE 7 13 4 7 1020.1 - 0.0
25/10:30am 16.4 13.6 3.1 41 6.1 SSE 7 13 4 7 1020.5 - 0.0
25/10:00am 15.6 12.5 3.7 45 5.5 SSE 9 15 5 8 1020.6 - 0.0
25/09:30am 15.2 11.6 4.9 50 4.9 ESE 13 17 7 9 1020.6 - 0.0
25/09:00am 14.0 10.7 4.3 52 4.5 SE 11 15 6 8 1020.6 1020.3 0.0
25/08:30am 12.4 10.6 3.6 55 4.0 ESE 2 9 1 5 1020.5 - 0.0
25/08:00am 9.4 7.9 2.9 64 2.8 CALM 0 0 0 0 1020.6 - 0.0
25/07:30am 4.3 2.4 0.8 78 1.4 CALM 0 0 0 0 1020.4 - 0.0
25/07:00am 2.7 0.7 -0.2 81 1.1 CALM 0 0 0 0 1020.2 - 0.0
25/06:30am 2.8 0.7 -1.0 76 1.4 CALM 0 0 0 0 1019.9 - 0.0
25/06:00am 2.9 0.8 -0.9 76 1.4 CALM 0 0 0 0 1019.7 1019.4 0.0
25/05:30am 3.6 1.6 -0.4 75 1.5 CALM 0 0 0 0 1019.7 - 0.0
25/05:00am 3.7 1.6 -0.7 73 1.6 CALM 0 0 0 0 1019.8 - 0.0
25/04:30am 4.1 2.0 -0.5 72 1.7 CALM 0 0 0 0 1019.8 - 0.0
25/04:00am 4.7 2.7 0.1 72 1.8 CALM 0 0 0 0 1019.8 - 0.0
25/03:30am 5.4 2.7 0.0 68 2.1 ESE 4 6 2 3 1019.8 - 0.0
25/03:00am 7.0 4.1 2.5 73 1.9 ESE 7 7 4 4 1019.9 1019.6 0.0
25/02:30am 5.7 2.0 -0.1 66 2.2 SE 9 9 5 5 1020.2 - 0.0
25/02:00am 6.0 2.8 0.8 69 2.1 SE 7 9 4 5 1020.3 - 0.0
25/01:30am 5.9 4.0 0.5 68 2.1 CALM 0 0 0 0 1020.5 - 0.0
25/01:00am 6.4 4.5 0.5 66 2.3 CALM 0 0 0 0 1020.6 - 0.0
25/12:30am 6.3 4.4 0.8 68 2.2 CALM 0 0 0 0 1020.9 - 0.0
25/12:00am 7.1 5.2 0.5 63 2.6 CALM 0 0 0 0 1020.9 1020.6 0.0
 
Date/Time
EST
Temp
°C
App
Temp
°C
Dew
Point
Rel
Hum
%
Delta-T
°C
Wind Press
QNH
hPa
Press
MSL
hPa
Rain
since 9 am
mm
Dir
 
Spd
km/h
Gust
km/h
Spd
kts
Gust
kts
24/11:30pm 7.4 4.6 -0.1 59 3.0 SSE 4 6 2 3 1021.1 - 0.0
24/11:00pm 7.5 4.4 0.3 60 2.9 SSE 6 6 3 3 1021.0 - 0.0
24/10:30pm 8.8 6.9 0.3 55 3.4 CALM 0 0 0 0 1021.1 - 0.0
24/10:00pm 8.7 5.4 -0.9 51 3.8 S 6 7 3 4 1021.3 - 0.0
24/09:30pm 9.1 7.0 -0.8 50 3.9 CALM 0 0 0 0 1021.4 - 0.0
24/09:00pm 9.7 7.5 -1.3 46 4.3 CALM 0 0 0 0 1021.4 1021.1 0.0
24/08:30pm 10.7 8.6 -1.0 44 4.7 CALM 0 0 0 0 1021.1 - 0.0
24/08:00pm 12.3 9.5 -0.2 42 5.2 SW 4 6 2 3 1021.0 - 0.0
24/07:30pm 12.8 9.4 -0.4 40 5.5 S 7 9 4 5 1020.6 - 0.0
24/07:00pm 13.7 9.8 -1.5 35 6.2 S 9 9 5 5 1020.5 - 0.0
24/06:30pm 15.3 11.8 -1.7 31 7.0 S 7 9 4 5 1020.5 - 0.0
24/06:00pm 16.4 12.0 -2.1 28 7.6 S 11 13 6 7 1020.1 1019.8 0.0
24/05:30pm 17.5 13.4 -2.7 25 8.3 S 9 11 5 6 1019.8 - 0.0
24/05:00pm 18.9 14.6 -4.5 20 9.4 S 9 13 5 7 1019.7 - 0.0
24/04:30pm 20.3 14.8 -5.5 17 10.3 SSW 15 20 8 11 1019.5 - 0.0
24/04:00pm 21.2 14.9 -5.6 16 10.8 S 19 26 10 14 1019.4 - 0.0
24/03:30pm 21.4 16.0 -4.6 17 10.7 S 15 26 8 14 1019.2 - 0.0
24/03:00pm 21.4 16.1 -3.9 18 10.6 SSW 15 24 8 13 1019.3 1019.0 0.0
24/02:30pm 21.5 16.3 -3.1 19 10.5 S 15 20 8 11 1019.1 - 0.0
24/02:00pm 20.4 14.6 -4.7 18 10.2 S 17 24 9 13 1019.2 - 0.0
24/01:30pm 20.6 15.7 -3.1 20 10.0 SSE 13 20 7 11 1019.7 - 0.0
24/01:00pm 20.3 14.7 -2.7 21 9.7 S 17 24 9 13 1020.1 - 0.0
24/12:30pm 19.8 13.9 -2.5 22 9.4 S 19 28 10 15 1020.7 - 0.0
24/12:00pm 18.7 12.7 -2.8 23 8.9 S 19 24 10 13 1020.9 1020.6 0.0
24/11:30am 18.6 12.8 -1.8 25 8.7 S 19 24 10 13 1021.3 - 0.0
24/11:00am 18.0 12.5 -1.8 26 8.4 S 17 24 9 13 1021.9 - 0.0
24/10:30am 17.0 11.9 -1.6 28 7.8 SE 15 22 8 12 1022.5 - 0.0
24/10:00am 16.3 10.5 -0.4 32 7.2 SE 20 28 11 15 1022.8 - 0.0
24/09:30am 14.6 9.5 0.5 38 6.1 SSE 17 22 9 12 1022.9 - 0.0
24/09:00am 14.0 8.6 1.0 41 5.6 SSE 19 24 10 13 1023.0 1022.7 0.0
24/08:30am 12.8 7.8 1.5 46 4.9 SSE 17 22 9 12 1022.9 - 0.0
24/08:00am 10.5 7.4 1.1 52 3.9 S 7 11 4 6 1022.8 - 0.0
24/07:30am 8.6 5.7 1.5 61 2.9 S 6 9 3 5 1022.6 - 0.0
24/07:00am 7.8 4.6 0.5 60 2.9 S 7 9 4 5 1022.3 - 0.0
24/06:30am 8.1 4.1 0.6 59 3.0 S 11 13 6 7 1021.8 - 0.0
24/06:00am 8.7 4.7 0.7 57 3.2 S 11 13 6 7 1021.3 1021.0 0.0
24/05:30am 9.6 6.0 0.8 54 3.6 S 9 11 5 6 1021.1 - 0.0
24/05:00am 10.6 6.7 1.4 53 3.9 S 11 15 6 8 1020.9 - 0.0
24/04:30am 11.3 7.3 0.7 48 4.4 S 11 15 6 8 1020.7 - 0.0
24/04:00am 11.9 7.6 1.0 47 4.6 S 13 17 7 9 1020.7 - 0.0
24/03:30am 12.5 8.2 0.9 45 4.9 S 13 17 7 9 1020.9 - 0.0
24/03:00am 13.2 8.9 0.9 43 5.2 S 13 19 7 10 1021.0 1020.7 0.0
24/02:30am 13.9 9.2 0.9 41 5.6 SSE 15 20 8 11 1021.0 - 0.0
24/02:00am 14.8 9.8 1.3 40 5.9 S 17 20 9 11 1021.0 - 0.0
24/01:30am 15.3 10.3 1.1 38 6.2 S 17 22 9 12 1020.9 - 0.0
24/01:00am 15.7 11.1 1.4 38 6.3 S 15 20 8 11 1020.9 - 0.0
24/12:30am 16.4 11.4 1.3 36 6.7 S 17 24 9 13 1021.0 - 0.0
24/12:00am 17.2 11.8 1.2 34 7.1 S 19 26 10 14 1021.0 1020.7 0.0
 
Date/Time
EST
Temp
°C
App
Temp
°C
Dew
Point
Rel
Hum
%
Delta-T
°C
Wind Press
QNH
hPa
Press
MSL
hPa
Rain
since 9 am
mm
Dir
 
Spd
km/h
Gust
km/h
Spd
kts
Gust
kts
23/11:30pm 18.1 12.2 1.6 33 7.5 S 22 33 12 18 1020.8 - 0.0
23/11:00pm 19.0 13.7 2.8 34 7.6 S 20 28 11 15 1020.6 - 0.0

Other Formats:

Comma delimited format used in spreadsheet applications
http://www.bom.gov.au/fwo/IDQ60801/IDQ60801.94517.axf

JavaScript Object Notation format (JSON) in row-major order
http://www.bom.gov.au/fwo/IDQ60801/IDQ60801.94517.json